Villas del Faro, Puerto Rico
Current Conditions -  °F | °C
As of 12:09 AM on Monday 20 Oct 2014 (Local Time) from TJNR Reporting Station
Broken Clouds Broken Clouds  
Wind Chill: 77°   Ceiling: 3800
Heat Index: 78°   Visibility: 10mi
Dew Point: 74°   Wind: 0mph
Humidity: 90%   Direction: NA
Pressure: 29.98"   Gusts: NA
Location:  18.0098°N, 65.8982°W
Report Text: TJNR 200409Z AUTO 00000KT 10SM FEW022 SCT029 BKN038 25/23 A2998 RMK AO2 RAB0355E08 P0000 T02500233 $
Loading
Personal Weather Stations






























Interactive Weather Map New forecast layout! Learn more

10-Day Weather Forecast

Advertisements
Track Severe Weather on mobile